createdAt,value
2023-05-14T00:03:42.496Z,58.50
2023-05-14T00:08:44.758Z,58.50
2023-05-14T00:13:47.981Z,58.60
2023-05-14T00:18:50.321Z,58.50
2023-05-14T00:23:52.581Z,58.30
2023-05-14T00:28:55.553Z,58.10
2023-05-14T00:33:57.947Z,58.00
2023-05-14T00:39:00.226Z,58.10
2023-05-14T00:44:02.922Z,58.00
2023-05-14T00:49:05.518Z,57.90
2023-05-14T00:54:08.333Z,57.80
2023-05-14T00:59:10.551Z,57.60
2023-05-14T01:04:13.630Z,57.50
2023-05-14T01:14:49.700Z,57.40
2023-05-14T01:19:52.428Z,57.30
2023-05-14T01:24:54.738Z,57.80
2023-05-14T01:35:34.061Z,57.10
2023-05-14T01:40:37.322Z,57.10
2023-05-14T01:45:39.745Z,56.80
2023-05-14T01:50:42.031Z,56.60
2023-05-14T01:55:44.291Z,56.50
2023-05-14T02:00:46.647Z,56.40
2023-05-14T02:05:49.181Z,56.20
2023-05-14T02:10:53.023Z,56.30
2023-05-14T02:15:55.334Z,56.40
2023-05-14T02:20:57.929Z,56.40
2023-05-14T02:26:00.309Z,56.20
2023-05-14T02:31:02.584Z,56.40
2023-05-14T02:36:04.931Z,56.20
2023-05-14T02:41:07.634Z,56.20
2023-05-14T02:46:09.839Z,56.30
2023-05-14T02:51:12.496Z,56.50
2023-05-14T02:56:14.747Z,56.60
2023-05-14T03:01:18.921Z,56.80
2023-05-14T03:06:22.204Z,57.00
2023-05-14T03:11:24.621Z,57.10
2023-05-14T03:16:27.038Z,57.20
2023-05-14T03:21:29.356Z,57.30
2023-05-14T03:26:31.628Z,57.20
2023-05-14T03:31:33.833Z,57.00
2023-05-14T03:36:37.833Z,57.20
2023-05-14T03:41:40.034Z,57.10
2023-05-14T03:46:42.341Z,57.20
2023-05-14T03:51:44.596Z,57.50
2023-05-14T03:56:46.948Z,57.70
2023-05-14T04:01:49.188Z,57.70
2023-05-14T04:06:52.652Z,58.50
2023-05-14T04:11:55.016Z,57.80
2023-05-14T04:16:57.978Z,58.30
2023-05-14T04:22:01.203Z,58.40
2023-05-14T04:27:03.878Z,58.20
2023-05-14T04:32:06.832Z,58.30
2023-05-14T04:37:09.080Z,59.30
2023-05-14T04:42:11.425Z,59.70
2023-05-14T04:47:13.660Z,59.70
2023-05-14T04:52:16.011Z,60.00
2023-05-14T04:57:18.239Z,60.40
2023-05-14T05:02:20.529Z,60.80
2023-05-14T05:07:23.116Z,61.10
2023-05-14T05:12:26.168Z,61.10
2023-05-14T05:17:29.788Z,61.40
2023-05-14T05:22:32.108Z,62.20
2023-05-14T05:27:34.322Z,61.60
2023-05-14T05:32:36.855Z,61.40
2023-05-14T05:37:39.074Z,62.10
2023-05-14T05:42:41.773Z,62.00
2023-05-14T05:47:44.154Z,61.50
2023-05-14T05:52:46.457Z,62.30
2023-05-14T05:57:48.719Z,61.70
2023-05-14T06:02:51.007Z,60.80
2023-05-14T06:07:53.824Z,61.60
2023-05-14T06:12:56.356Z,62.10
2023-05-14T06:17:58.657Z,62.40
2023-05-14T06:23:01.093Z,60.50
2023-05-14T06:28:03.460Z,59.10
2023-05-14T06:33:05.860Z,57.50
2023-05-14T06:38:08.141Z,58.20
2023-05-14T06:43:10.329Z,57.50
2023-05-14T06:48:13.381Z,55.90
2023-05-14T06:53:15.823Z,56.60
2023-05-14T06:58:18.091Z,56.10
2023-05-14T07:03:20.502Z,55.00
2023-05-14T07:08:23.390Z,56.50
2023-05-14T07:13:28.863Z,56.00
2023-05-14T07:18:31.410Z,57.30
2023-05-14T07:23:36.333Z,57.10
2023-05-14T07:28:38.768Z,54.50
2023-05-14T07:33:40.959Z,52.30
2023-05-14T07:38:43.270Z,54.00
2023-05-14T07:43:45.671Z,53.90
2023-05-14T07:48:47.901Z,52.30
2023-05-14T07:53:50.070Z,51.40
2023-05-14T07:58:52.374Z,49.90
2023-05-14T08:03:54.682Z,49.90
2023-05-14T08:08:58.281Z,50.50
2023-05-14T08:14:01.044Z,50.70
2023-05-14T08:19:03.295Z,49.20
2023-05-14T08:24:05.918Z,51.80
2023-05-14T08:29:10.486Z,51.00
2023-05-14T08:34:13.201Z,50.80
2023-05-14T08:39:15.371Z,50.80
2023-05-14T08:54:38.350Z,51.30
2023-05-14T08:59:41.282Z,50.10
2023-05-14T09:04:43.625Z,49.90
2023-05-14T09:09:46.261Z,50.20
2023-05-14T09:14:50.194Z,49.60
2023-05-14T09:19:53.353Z,50.30
2023-05-14T09:25:07.096Z,49.70
2023-05-14T09:30:12.156Z,49.90
2023-05-14T09:35:17.985Z,50.70
2023-05-14T09:40:22.392Z,50.40
2023-05-14T09:45:24.943Z,49.90
2023-05-14T09:50:27.315Z,50.70
2023-05-14T09:55:29.812Z,52.00
2023-05-14T10:00:32.850Z,52.70
2023-05-14T10:05:36.846Z,51.50
2023-05-14T10:10:40.671Z,51.80
2023-05-14T10:15:50.873Z,52.40
2023-05-14T10:21:04.259Z,52.50
2023-05-14T10:26:06.980Z,54.50
2023-05-14T10:31:10.970Z,54.60
2023-05-14T10:36:13.426Z,55.80
2023-05-14T10:41:18.115Z,55.80
2023-05-14T10:46:21.003Z,57.90
2023-05-14T10:51:23.963Z,57.10
2023-05-14T10:56:26.250Z,58.20
2023-05-14T11:01:28.619Z,57.30
2023-05-14T11:06:31.597Z,58.30
2023-05-14T11:11:35.405Z,57.60
2023-05-14T11:16:38.126Z,57.70
2023-05-14T11:21:41.192Z,56.80
2023-05-14T11:26:43.444Z,56.30
2023-05-14T11:31:45.806Z,56.00
2023-05-14T11:36:48.051Z,56.00
2023-05-14T11:41:50.313Z,55.80
2023-05-14T11:46:57.217Z,55.00
2023-05-14T11:52:00.749Z,53.60
2023-05-14T11:57:10.090Z,55.80
2023-05-14T12:02:14.569Z,55.80
2023-05-14T12:07:17.097Z,56.80
2023-05-14T12:12:22.446Z,56.40
2023-05-14T12:17:24.872Z,55.00
2023-05-14T12:22:29.681Z,55.90
2023-05-14T12:27:31.986Z,55.60
2023-05-14T12:32:36.192Z,55.20
2023-05-14T12:37:40.077Z,56.00
2023-05-14T12:42:42.350Z,56.50
2023-05-14T12:47:44.553Z,56.50
2023-05-14T12:52:46.830Z,56.50
2023-05-14T12:57:49.266Z,57.10
2023-05-14T13:02:51.630Z,57.90
2023-05-14T13:07:53.962Z,57.80
2023-05-14T13:12:56.609Z,57.60
2023-05-14T13:17:59.015Z,57.80
2023-05-14T13:23:01.262Z,56.40
2023-05-14T13:28:03.498Z,55.80
2023-05-14T13:33:06.084Z,55.60
2023-05-14T13:38:08.394Z,54.60
2023-05-14T13:43:11.100Z,54.70
2023-05-14T13:48:13.386Z,55.60
2023-05-14T13:53:15.802Z,55.50
2023-05-14T13:58:18.122Z,55.20
2023-05-14T14:03:20.599Z,54.30
2023-05-14T14:08:24.394Z,54.90
2023-05-14T14:13:29.651Z,53.30
2023-05-14T14:18:32.261Z,52.80
2023-05-14T14:23:34.548Z,53.00
2023-05-14T14:28:37.105Z,53.00
2023-05-14T14:33:39.613Z,53.50
2023-05-14T14:38:42.066Z,54.90
2023-05-14T14:43:44.336Z,55.20
2023-05-14T14:48:46.620Z,56.00
2023-05-14T14:53:48.912Z,56.50
2023-05-14T14:58:51.094Z,55.60
2023-05-14T15:03:53.463Z,55.10
2023-05-14T15:08:55.920Z,55.40
2023-05-14T15:13:58.720Z,56.50
2023-05-14T15:19:01.895Z,57.10
2023-05-14T15:24:05.245Z,58.60
2023-05-14T15:29:07.863Z,58.20
2023-05-14T15:34:10.259Z,58.40
2023-05-14T15:39:13.016Z,59.10
2023-05-14T15:44:15.227Z,59.20
2023-05-14T15:49:17.515Z,60.70
2023-05-14T15:54:19.820Z,60.30
2023-05-14T15:59:22.146Z,60.10
2023-05-14T16:04:24.388Z,60.40
2023-05-14T16:09:26.878Z,61.20
2023-05-14T16:14:29.610Z,61.00
2023-05-14T16:19:32.237Z,61.90
2023-05-14T16:24:34.630Z,62.30
2023-05-14T16:29:36.940Z,62.70
2023-05-14T16:34:39.176Z,62.90
2023-05-14T16:39:41.420Z,63.00
2023-05-14T16:44:43.994Z,63.00
2023-05-14T16:49:46.279Z,63.00
2023-05-14T16:54:48.581Z,63.30
2023-05-14T16:59:53.550Z,63.60
2023-05-14T17:04:56.062Z,64.10
2023-05-14T17:10:00.131Z,64.00
2023-05-14T17:15:05.307Z,64.20
2023-05-14T17:20:08.662Z,64.40
2023-05-14T17:25:11.017Z,64.40
2023-05-14T17:30:13.574Z,64.60
2023-05-14T17:35:16.456Z,64.00
2023-05-14T17:40:19.458Z,63.40
2023-05-14T17:45:22.222Z,63.50
2023-05-14T17:50:24.578Z,63.10
2023-05-14T17:55:27.222Z,63.50
2023-05-14T18:00:29.504Z,64.30
2023-05-14T18:05:32.583Z,63.60
2023-05-14T18:10:34.924Z,63.50
2023-05-14T18:15:37.533Z,63.60
2023-05-14T18:20:40.051Z,63.80
2023-05-14T18:25:42.378Z,63.60
2023-05-14T18:30:45.541Z,63.80
2023-05-14T18:35:47.902Z,63.80
2023-05-14T18:40:50.168Z,64.10
2023-05-14T18:45:52.490Z,64.40
2023-05-14T18:50:54.783Z,64.70
2023-05-14T18:55:57.347Z,64.50
2023-05-14T19:00:59.626Z,65.30
2023-05-14T19:06:01.964Z,65.90
2023-05-14T19:11:04.169Z,65.80
2023-05-14T19:16:07.216Z,66.10
2023-05-14T19:21:09.740Z,65.60
2023-05-14T19:26:12.040Z,65.10
2023-05-14T19:31:14.301Z,65.10
2023-05-14T19:36:16.525Z,65.50
2023-05-14T19:41:18.745Z,65.90
2023-05-14T20:01:12.200Z,64.60
2023-05-14T20:06:15.774Z,68.60
2023-05-14T20:11:19.663Z,68.00
2023-05-14T20:16:22.006Z,67.00
2023-05-14T20:21:24.218Z,66.70
2023-05-14T20:26:26.545Z,67.00
2023-05-14T20:31:29.110Z,67.10
2023-05-14T20:36:31.895Z,67.40
2023-05-14T20:41:34.292Z,67.30
2023-05-14T20:46:36.572Z,67.90
2023-05-14T20:51:38.876Z,67.90
2023-05-14T20:56:41.044Z,67.80
2023-05-14T21:01:43.338Z,67.90
2023-05-14T21:06:45.874Z,68.20
2023-05-14T21:11:48.167Z,69.00
2023-05-14T21:16:50.557Z,69.30
2023-05-14T21:21:52.831Z,69.50
2023-05-14T21:26:55.301Z,69.00
2023-05-14T21:31:57.568Z,68.10
2023-05-14T21:36:59.933Z,68.30
2023-05-14T21:42:02.210Z,68.50
2023-05-14T21:47:05.031Z,68.60
2023-05-14T21:52:07.582Z,68.70
2023-05-14T21:57:09.868Z,68.90
2023-05-14T22:02:12.295Z,69.00
2023-05-14T22:07:14.683Z,69.40
2023-05-14T22:12:16.951Z,68.90
2023-05-14T22:17:19.132Z,69.20
2023-05-14T22:22:21.331Z,69.20
2023-05-14T22:27:23.637Z,69.30
2023-05-14T22:32:26.060Z,69.30
2023-05-14T22:37:28.301Z,69.50
2023-05-14T22:42:30.616Z,68.90
2023-05-14T22:47:32.946Z,69.10
2023-05-14T22:52:35.250Z,69.50
2023-05-14T22:57:37.838Z,69.40
2023-05-14T23:02:40.158Z,69.60
2023-05-14T23:07:42.637Z,70.00
2023-05-14T23:12:44.869Z,70.30
2023-05-14T23:17:47.162Z,70.50
2023-05-14T23:22:49.627Z,70.70
2023-05-14T23:27:52.313Z,71.00
2023-05-14T23:32:54.646Z,71.10
2023-05-14T23:37:56.949Z,71.30
2023-05-14T23:43:00.398Z,71.80
2023-05-14T23:48:02.830Z,71.90
2023-05-14T23:53:05.289Z,72.00
2023-05-14T23:58:07.606Z,71.80
